Time;durP1;ratioP1;P1;durP2;ratioP2;P2;SDS_P1;SDS_P2;PMS_P1;PMS_P2;Temp;Humidity;BMP_temperature;BMP_pressure;BME280_temperature;BME280_humidity;BME280_pressure;Samples;Min_cycle;Max_cycle;Signal;HPM_P1;HPM_P2
2023/01/10 00:00:36;;;;;;;30.20;14.70;;;;;;;5.41;86.94;98940.34;210656;1293;140156;-68
2023/01/10 00:05:59;;;;;;;19.70;13.90;;;;;;;5.34;86.36;98942.85;210250;1295;141921;-66
2023/01/10 00:13:22;;;;;;;23.40;15.30;;;;;;;5.20;86.58;98947.61;209657;1291;140817;-66
2023/01/10 00:16:26;;;;;;;26.00;15.50;;;;;;;5.03;86.06;98957.39;209673;1286;139639;-66
2023/01/10 00:21:32;;;;;;;26.80;15.30;;;;;;;4.87;86.43;98960.88;209913;1292;140726;-66
2023/01/10 00:26:35;;;;;;;22.50;15.40;;;;;;;4.84;86.27;98964.11;208434;1278;140643;-64
2023/01/10 00:31:38;;;;;;;20.50;14.40;;;;;;;4.70;86.21;98966.65;207878;1293;140233;-62
2023/01/10 00:36:41;;;;;;;18.90;15.00;;;;;;;4.57;86.58;98978.17;208609;1285;139911;-63
2023/01/10 00:47:07;;;;;;;24.10;18.20;;;;;;;4.48;86.47;98987.25;208756;1278;140074;-64
2023/01/10 00:52:09;;;;;;;27.30;16.20;;;;;;;4.45;86.88;98993.56;208005;1285;151500;-65
2023/01/10 00:57:11;;;;;;;31.80;17.60;;;;;;;4.43;87.17;98998.17;207837;1278;140364;-62
2023/01/10 01:02:14;;;;;;;24.10;13.80;;;;;;;4.39;86.89;99000.49;208526;1285;140454;-64
2023/01/10 01:07:16;;;;;;;25.00;18.70;;;;;;;4.36;86.97;98999.49;208125;1278;140948;-62
2023/01/10 01:12:19;;;;;;;24.70;17.40;;;;;;;4.32;86.92;99006.79;208325;1285;152466;-66
2023/01/10 01:17:22;;;;;;;27.60;18.90;;;;;;;4.26;87.19;99014.25;208494;1286;140478;-64
2023/01/10 01:22:25;;;;;;;24.20;15.10;;;;;;;4.25;87.29;99013.14;208419;1294;141198;-64
2023/01/10 01:27:30;;;;;;;26.30;16.00;;;;;;;4.26;87.34;99016.05;208309;1278;142567;-62
2023/01/10 01:32:33;;;;;;;22.70;15.90;;;;;;;4.27;87.55;99017.79;210698;1293;140722;-66
2023/01/10 01:37:37;;;;;;;31.10;18.30;;;;;;;4.25;87.26;99023.58;208855;1294;139947;-65
2023/01/10 01:42:41;;;;;;;23.30;15.00;;;;;;;4.22;87.17;99023.50;209410;1294;140490;-67
2023/01/10 01:47:47;;;;;;;32.60;18.30;;;;;;;4.24;87.12;99030.39;210379;1292;140454;-67
2023/01/10 01:52:53;;;;;;;31.50;18.70;;;;;;;4.25;87.17;99036.48;210521;1291;140970;-67
2023/01/10 01:58:00;;;;;;;29.50;18.40;;;;;;;4.23;87.12;99038.84;210146;1295;139993;-66
2023/01/10 02:03:05;;;;;;;28.80;18.60;;;;;;;4.21;87.23;99042.05;208416;1284;139870;-66
2023/01/10 02:08:09;;;;;;;31.80;18.60;;;;;;;4.24;86.96;99044.64;208343;1286;140010;-66
2023/01/10 02:13:16;;;;;;;38.30;20.90;;;;;;;4.17;86.63;99047.46;209060;1285;140398;-67
2023/01/10 02:18:22;;;;;;;29.00;19.00;;;;;;;4.04;86.38;99051.77;209028;1294;140077;-67
2023/01/10 02:23:28;;;;;;;24.20;14.60;;;;;;;3.93;86.33;99057.14;209346;1293;141103;-65
2023/01/10 02:28:50;;;;;;;21.40;15.40;;;;;;;3.78;86.00;99061.48;208159;1285;143023;-64
2023/01/10 02:34:07;;;;;;;52.00;23.00;;;;;;;3.74;86.51;99061.20;209397;1295;140373;-65
2023/01/10 02:39:20;;;;;;;62.40;28.70;;;;;;;3.67;86.66;99068.23;208646;1286;140077;-65
2023/01/10 02:44:34;;;;;;;41.10;19.90;;;;;;;3.59;86.24;99073.05;208629;1286;140305;-64
2023/01/10 02:49:46;;;;;;;38.90;19.70;;;;;;;3.49;86.04;99081.28;208687;1300;142147;-65
2023/01/10 02:54:54;;;;;;;42.00;22.40;;;;;;;3.42;86.31;99084.20;208427;1285;140299;-63
2023/01/10 03:00:17;;;;;;;24.10;16.10;;;;;;;3.26;85.87;99091.97;208572;1291;140287;-65
2023/01/10 03:05:49;;;;;;;33.30;18.20;;;;;;;3.00;85.62;99096.94;208633;1284;140270;-65
2023/01/10 03:11:02;;;;;;;32.80;19.60;;;;;;;2.92;85.95;99101.52;209098;1292;140582;-67
2023/01/10 03:16:09;;;;;;;40.80;22.00;;;;;;;2.94;86.77;99108.40;209109;1294;139917;-65
2023/01/10 03:21:15;;;;;;;36.80;19.00;;;;;;;2.99;86.99;99109.17;208012;1285;139228;-67
2023/01/10 03:26:28;;;;;;;34.20;19.50;;;;;;;3.01;86.82;99113.80;207524;1286;140159;-65
2023/01/10 03:31:57;;;;;;;43.10;20.00;;;;;;;2.99;86.26;99122.10;209387;1284;140074;-65
2023/01/10 03:37:30;;;;;;;35.40;19.50;;;;;;;2.88;86.42;99129.73;210109;1294;139841;-65
2023/01/10 03:48:36;;;;;;;35.00;19.40;;;;;;;2.90;86.60;99144.44;210596;1298;140651;-65
2023/01/10 03:53:39;;;;;;;31.20;19.20;;;;;;;2.95;86.78;99154.62;209106;1291;141351;-65
2023/01/10 03:58:42;;;;;;;29.60;19.10;;;;;;;2.97;87.00;99158.06;210824;1295;139817;-64
2023/01/10 04:03:45;;;;;;;30.80;17.40;;;;;;;2.93;86.72;99163.85;210125;1295;140278;-66
2023/01/10 04:08:48;;;;;;;28.70;18.00;;;;;;;2.90;86.36;99175.86;208700;1286;140226;-64
2023/01/10 04:13:52;;;;;;;25.00;13.60;;;;;;;2.84;86.42;99181.30;208865;1285;140734;-63
2023/01/10 04:18:55;;;;;;;19.50;13.00;;;;;;;2.76;86.58;99187.81;208977;1287;139263;-64
2023/01/10 04:23:59;;;;;;;20.10;14.30;;;;;;;2.66;86.92;99195.72;208148;1285;140013;-63
2023/01/10 04:29:04;;;;;;;25.10;16.00;;;;;;;2.69;87.34;99205.56;209522;1293;140040;-65
2023/01/10 04:34:09;;;;;;;28.10;16.80;;;;;;;2.80;87.49;99217.30;208535;1291;141046;-64
2023/01/10 04:39:13;;;;;;;25.90;16.40;;;;;;;2.89;87.72;99223.48;208740;1292;141315;-65
2023/01/10 04:44:17;;;;;;;22.70;15.00;;;;;;;2.96;87.88;99226.60;209411;1292;139369;-66
2023/01/10 04:49:21;;;;;;;30.00;16.40;;;;;;;2.96;87.60;99231.58;208450;1293;139500;-65
2023/01/10 04:54:24;;;;;;;27.20;16.40;;;;;;;2.91;87.10;99243.42;208136;1300;140517;-64
2023/01/10 04:59:26;;;;;;;29.70;17.90;;;;;;;2.82;87.08;99253.55;208815;1291;234172;-65
2023/01/10 05:04:29;;;;;;;32.90;18.80;;;;;;;2.75;87.34;99266.52;209371;1291;139465;-66
2023/01/10 05:09:32;;;;;;;33.00;18.80;;;;;;;2.77;87.65;99276.68;209158;1292;139729;-66
2023/01/10 05:14:35;;;;;;;32.50;19.40;;;;;;;2.84;87.74;99276.44;208614;1284;140619;-66
2023/01/10 05:19:38;;;;;;;31.40;18.70;;;;;;;2.81;87.28;99279.51;208869;1295;140177;-66
2023/01/10 05:24:40;;;;;;;34.60;19.90;;;;;;;2.76;87.95;99287.45;207817;1286;159718;-65
2023/01/10 05:29:44;;;;;;;28.90;18.50;;;;;;;2.80;88.11;99296.63;209027;1291;141306;-64
2023/01/10 05:34:47;;;;;;;40.80;20.30;;;;;;;2.90;88.28;99307.45;209749;1282;141345;-63
2023/01/10 05:39:49;;;;;;;35.40;22.50;;;;;;;3.00;88.19;99316.66;210424;1287;141341;-64
2023/01/10 05:44:52;;;;;;;42.70;22.50;;;;;;;3.07;88.26;99328.38;210657;1274;141071;-63
2023/01/10 05:49:54;;;;;;;36.60;23.20;;;;;;;3.08;88.04;99342.48;210554;1292;140661;-64
2023/01/10 05:54:56;;;;;;;46.70;22.50;;;;;;;3.11;88.08;99351.16;209781;1295;140744;-65
2023/01/10 05:59:58;;;;;;;39.20;22.10;;;;;;;3.17;88.01;99360.52;210090;1298;142055;-65
2023/01/10 06:05:01;;;;;;;52.40;30.10;;;;;;;3.23;88.42;99370.64;209312;1291;152759;-65
2023/01/10 06:10:04;;;;;;;62.90;32.40;;;;;;;3.25;88.22;99375.48;210228;1286;141539;-65
2023/01/10 06:15:07;;;;;;;55.20;29.00;;;;;;;3.19;87.79;99383.90;208625;1290;141916;-64
2023/01/10 06:20:12;;;;;;;50.50;25.70;;;;;;;3.22;88.15;99390.73;208092;1291;141180;-64
2023/01/10 06:25:15;;;;;;;48.60;26.40;;;;;;;3.28;88.26;99397.30;208316;1291;141819;-64
2023/01/10 06:30:18;;;;;;;48.40;23.90;;;;;;;3.27;88.20;99401.50;209533;1290;141265;-64
2023/01/10 06:35:21;;;;;;;43.30;23.20;;;;;;;3.20;88.11;99408.45;209036;1291;139197;-63
2023/01/10 06:40:26;;;;;;;36.90;19.10;;;;;;;3.12;87.88;99418.43;209365;1295;140413;-65
2023/01/10 06:45:31;;;;;;;58.60;26.10;;;;;;;3.09;88.19;99442.68;208485;1297;141179;-65
2023/01/10 06:50:34;;;;;;;34.80;21.20;;;;;;;3.16;88.33;99448.23;208929;1294;140724;-65
2023/01/10 06:55:37;;;;;;;42.80;22.20;;;;;;;3.17;88.41;99458.73;208503;1299;139265;-65
2023/01/10 07:00:41;;;;;;;51.90;29.90;;;;;;;3.11;88.33;99469.48;209174;1298;139202;-64
2023/01/10 07:05:46;;;;;;;58.20;30.70;;;;;;;3.10;88.71;99479.02;209638;1298;140058;-64
2023/01/10 07:10:50;;;;;;;41.00;22.40;;;;;;;3.19;88.67;99489.27;209572;1294;140099;-65
2023/01/10 07:16:04;;;;;;;46.90;24.80;;;;;;;3.29;88.89;99498.98;208278;1298;141075;-63
2023/01/10 07:21:09;;;;;;;38.10;19.60;;;;;;;3.37;88.96;99498.80;208829;1292;140908;-66
2023/01/10 07:26:16;;;;;;;47.20;23.80;;;;;;;3.40;88.97;99504.41;209607;1292;140140;-63
2023/01/10 07:31:22;;;;;;;48.10;24.40;;;;;;;3.46;88.89;99510.50;209853;1284;140248;-64
2023/01/10 07:36:25;;;;;;;40.90;23.10;;;;;;;3.55;88.99;99523.52;209714;1295;140451;-63
2023/01/10 07:41:28;;;;;;;36.30;23.50;;;;;;;3.61;89.29;99533.17;209172;1294;140012;-66
2023/01/10 07:46:32;;;;;;;38.50;23.70;;;;;;;3.65;89.18;99543.06;210347;1294;142839;-65
2023/01/10 07:51:35;;;;;;;39.00;23.50;;;;;;;3.69;89.04;99554.09;210145;1301;219792;-68
2023/01/10 07:56:39;;;;;;;39.20;23.40;;;;;;;3.83;89.56;99554.81;210593;1299;140004;-66
2023/01/10 08:01:42;;;;;;;41.60;24.40;;;;;;;3.92;89.47;99553.33;210594;1293;140846;-65
2023/01/10 08:06:45;;;;;;;37.90;23.10;;;;;;;3.99;89.50;99558.10;210766;1291;141481;-65
2023/01/10 08:11:48;;;;;;;42.90;26.90;;;;;;;4.13;89.24;99560.63;209367;1298;142104;-67
2023/01/10 08:16:52;;;;;;;48.20;28.10;;;;;;;4.17;89.14;99565.39;209525;1287;141617;-66
2023/01/10 08:21:54;;;;;;;44.10;26.50;;;;;;;4.18;89.16;99574.58;210167;1294;149523;-66
2023/01/10 08:26:58;;;;;;;39.30;23.50;;;;;;;4.22;88.99;99589.98;208141;1292;155543;-65
2023/01/10 08:32:01;;;;;;;51.10;28.50;;;;;;;4.27;89.14;99590.68;208610;1284;142757;-66
2023/01/10 08:37:05;;;;;;;52.80;29.90;;;;;;;4.29;89.03;99595.02;208769;1298;689157;-65
2023/01/10 08:42:08;;;;;;;46.60;25.30;;;;;;;4.32;89.29;99592.95;208461;1286;141743;-63
2023/01/10 08:47:11;;;;;;;46.40;29.60;;;;;;;4.39;89.18;99595.02;208532;1279;141388;-63
2023/01/10 08:52:15;;;;;;;49.70;29.40;;;;;;;4.44;89.03;99601.09;209262;1299;142217;-65
2023/01/10 08:57:18;;;;;;;60.90;32.40;;;;;;;4.45;89.18;99603.81;208858;1286;140506;-66
2023/01/10 09:02:21;;;;;;;47.70;28.10;;;;;;;4.51;88.75;99602.83;208531;1286;222219;-65
2023/01/10 09:07:24;;;;;;;43.80;28.00;;;;;;;4.58;89.08;99603.08;208020;1293;141583;-65
2023/01/10 09:17:55;;;;;;;52.60;28.40;;;;;;;4.59;88.94;99611.00;209384;1301;220565;-67
2023/01/10 09:23:07;;;;;;;52.90;32.50;;;;;;;4.68;88.98;99616.42;209540;1292;141337;-66
2023/01/10 09:28:11;;;;;;;56.10;33.20;;;;;;;4.72;88.95;99615.63;209341;1285;141411;-67
2023/01/10 09:33:15;;;;;;;51.10;31.70;;;;;;;4.77;88.77;99620.11;209071;1292;145006;-66
2023/01/10 09:38:21;;;;;;;50.80;30.10;;;;;;;4.87;88.96;99628.17;207828;1286;139603;-67
2023/01/10 09:44:02;;;;;;;49.00;29.60;;;;;;;4.96;88.77;99629.80;210700;1293;142109;-67
2023/01/10 09:49:18;;;;;;;43.60;31.50;;;;;;;5.04;88.84;99623.64;210542;1288;245193;-65
2023/01/10 09:54:35;;;;;;;39.10;25.40;;;;;;;5.10;89.07;99621.95;209588;1298;141171;-67
2023/01/10 09:59:40;;;;;;;44.40;28.00;;;;;;;5.20;88.93;99626.21;209849;1292;223638;-67
2023/01/10 10:04:52;;;;;;;46.10;27.90;;;;;;;5.33;89.05;99634.73;210532;1294;141132;-67
2023/01/10 10:09:55;;;;;;;47.00;29.70;;;;;;;5.43;89.10;99633.30;210539;1292;140057;-67
2023/01/10 10:15:36;;;;;;;50.30;28.50;;;;;;;5.50;88.88;99635.37;207734;1286;141210;-66
2023/01/10 10:21:06;;;;;;;42.80;29.10;;;;;;;5.55;88.42;99644.11;208201;1295;234524;-65
2023/01/10 10:26:34;;;;;;;48.20;28.40;;;;;;;5.57;88.57;99649.48;209127;1285;139702;-67
2023/01/10 10:32:12;;;;;;;46.30;29.80;;;;;;;5.53;88.41;99660.79;208671;1285;139814;-63
2023/01/10 10:37:22;;;;;;;47.30;27.80;;;;;;;5.50;88.43;99667.28;208886;1278;139840;-64
2023/01/10 10:42:32;;;;;;;46.40;29.70;;;;;;;5.52;88.02;99676.48;208799;1285;140386;-66
2023/01/10 10:47:41;;;;;;;55.40;35.40;;;;;;;5.46;87.75;99681.23;208933;1292;140032;-65
2023/01/10 10:52:46;;;;;;;56.30;33.70;;;;;;;5.42;88.33;99690.98;209065;1284;141594;-65
2023/01/10 10:57:49;;;;;;;48.60;33.00;;;;;;;5.43;88.39;99698.46;207963;1278;144356;-67
2023/01/10 11:03:30;;;;;;;53.80;33.50;;;;;;;5.42;88.37;99701.76;208593;1284;141306;-66
2023/01/10 11:08:40;;;;;;;56.40;33.90;;;;;;;5.42;88.34;99701.55;208482;1278;140126;-66
2023/01/10 11:13:55;;;;;;;56.50;33.10;;;;;;;5.43;88.70;99707.58;208611;1278;235647;-66
2023/01/10 11:19:25;;;;;;;54.10;32.20;;;;;;;5.51;88.71;99711.67;209016;1294;140108;-65
2023/01/10 11:24:33;;;;;;;51.80;34.80;;;;;;;5.58;88.53;99716.47;209325;1295;141042;-65
2023/01/10 11:29:42;;;;;;;49.10;30.10;;;;;;;5.62;88.81;99717.54;208893;1286;140735;-66
2023/01/10 11:35:01;;;;;;;47.80;30.30;;;;;;;5.63;88.63;99721.13;209695;1298;139562;-68
2023/01/10 11:40:25;;;;;;;43.50;29.60;;;;;;;5.75;88.37;99725.25;208609;1278;142147;-69
2023/01/10 11:45:34;;;;;;;53.60;32.80;;;;;;;5.79;88.14;99735.67;210698;1295;141222;-67
2023/01/10 11:50:41;;;;;;;50.10;30.40;;;;;;;5.80;88.62;99742.55;210437;1295;141170;-65
2023/01/10 11:55:47;;;;;;;48.50;28.30;;;;;;;5.81;88.00;99750.66;210804;1295;141500;-67
2023/01/10 12:00:51;;;;;;;50.90;29.20;;;;;;;5.84;87.63;99751.38;210491;1299;140381;-66
2023/01/10 12:06:21;;;;;;;49.50;33.60;;;;;;;5.88;88.14;99754.88;210667;1293;139640;-67
2023/01/10 12:11:34;;;;;;;52.10;34.60;;;;;;;5.88;88.03;99761.12;209435;1291;140326;-67
2023/01/10 12:16:37;;;;;;;40.40;24.90;;;;;;;5.86;87.98;99764.70;208757;1289;139732;-66
2023/01/10 12:21:43;;;;;;;53.70;32.70;;;;;;;5.91;87.65;99774.91;209395;1285;140735;-67
2023/01/10 12:26:49;;;;;;;48.20;29.90;;;;;;;5.93;87.88;99776.26;208099;1286;140731;-66
2023/01/10 12:31:57;;;;;;;45.90;29.50;;;;;;;5.89;87.63;99777.83;208399;1292;139558;-66
2023/01/10 12:37:33;;;;;;;54.60;31.20;;;;;;;5.84;87.82;99783.73;207948;1292;141080;-66
2023/01/10 12:48:38;;;;;;;50.00;28.30;;;;;;;5.83;87.94;99787.13;208031;1286;220767;-65
2023/01/10 12:54:07;;;;;;;44.30;27.50;;;;;;;5.78;88.04;99796.58;208600;1285;140094;-65
2023/01/10 12:59:36;;;;;;;39.70;25.70;;;;;;;5.73;88.03;99807.27;207986;1294;139132;-65
2023/01/10 13:04:43;;;;;;;38.60;26.00;;;;;;;5.70;88.24;99812.55;208583;1293;140457;-66
2023/01/10 13:09:48;;;;;;;43.90;26.50;;;;;;;5.73;88.12;99819.60;208497;1286;141761;-65
2023/01/10 13:14:56;;;;;;;33.30;21.80;;;;;;;5.71;88.30;99828.67;207855;1286;140525;-66
2023/01/10 13:20:29;;;;;;;35.30;22.20;;;;;;;5.65;87.94;99837.61;208305;1293;140478;-65
2023/01/10 13:25:36;;;;;;;35.60;22.10;;;;;;;5.58;88.12;99851.21;209535;1286;139368;-67
2023/01/10 13:30:41;;;;;;;37.40;21.80;;;;;;;5.58;88.47;99865.00;209017;1285;141109;-66
2023/01/10 13:35:44;;;;;;;36.30;22.30;;;;;;;5.67;88.38;99874.56;208445;1294;140755;-67
2023/01/10 13:41:06;;;;;;;40.00;26.40;;;;;;;5.67;88.06;99888.23;210667;1293;140313;-66
2023/01/10 13:46:16;;;;;;;37.00;24.60;;;;;;;5.62;88.43;99896.91;210123;1295;140804;-66
2023/01/10 13:51:22;;;;;;;35.10;22.90;;;;;;;5.57;87.70;99902.26;209900;1292;140941;-66
2023/01/10 13:56:35;;;;;;;36.60;21.00;;;;;;;5.55;88.03;99900.42;210819;1294;139604;-66
2023/01/10 14:07:12;;;;;;;33.10;20.60;;;;;;;5.59;88.94;99907.85;209475;1295;139978;-66
2023/01/10 14:12:48;;;;;;;39.30;22.90;;;;;;;5.65;88.56;99914.51;208569;1285;141085;-66
2023/01/10 14:18:00;;;;;;;39.00;24.60;;;;;;;5.64;88.38;99916.16;209344;1293;141988;-66
2023/01/10 14:23:19;;;;;;;44.60;24.50;;;;;;;5.64;88.44;99918.61;209613;1286;141010;-66
2023/01/10 14:28:25;;;;;;;41.00;23.80;;;;;;;5.63;88.28;99927.64;208905;1286;141055;-64
2023/01/10 14:33:31;;;;;;;42.90;25.70;;;;;;;5.64;88.50;99923.73;208000;1286;140819;-66
2023/01/10 14:38:37;;;;;;;44.60;25.00;;;;;;;5.64;88.78;99927.61;207902;1281;139997;-66
2023/01/10 14:43:47;;;;;;;45.40;25.00;;;;;;;5.63;88.61;99932.56;208332;1282;139565;-66
2023/01/10 14:48:59;;;;;;;51.10;25.50;;;;;;;5.60;88.20;99935.44;208346;1279;140529;-67
2023/01/10 14:54:12;;;;;;;47.40;23.80;;;;;;;5.54;88.56;99937.39;208685;1284;141043;-66
2023/01/10 14:59:33;;;;;;;43.50;24.30;;;;;;;5.49;88.59;99942.48;208494;1286;140093;-66
2023/01/10 15:04:45;;;;;;;41.10;24.20;;;;;;;5.47;88.99;99960.86;209645;1286;141619;-66
2023/01/10 15:09:51;;;;;;;40.90;22.20;;;;;;;5.50;88.67;99971.02;209347;1292;140770;-66
2023/01/10 15:15:03;;;;;;;44.30;24.30;;;;;;;5.50;88.41;99978.36;209895;1285;141173;-66
2023/01/10 15:20:13;;;;;;;39.90;20.80;;;;;;;5.45;88.83;99980.78;208586;1292;139672;-66
2023/01/10 15:25:19;;;;;;;42.60;22.30;;;;;;;5.37;88.60;99981.95;209878;1291;142269;-66
2023/01/10 15:30:31;;;;;;;33.10;17.70;;;;;;;5.36;88.26;99984.83;208495;1292;142012;-67
2023/01/10 15:35:35;;;;;;;35.30;21.40;;;;;;;5.37;88.96;99996.48;209257;1284;141460;-64
2023/01/10 15:40:41;;;;;;;39.00;20.40;;;;;;;5.39;89.25;100003.07;210824;1294;140246;-66
2023/01/10 15:45:46;;;;;;;35.70;20.10;;;;;;;5.44;88.61;100006.23;210531;1293;140477;-67
2023/01/10 15:50:58;;;;;;;35.70;21.60;;;;;;;5.45;88.72;100012.79;210285;1290;141683;-66
2023/01/10 15:56:15;;;;;;;31.90;20.60;;;;;;;5.41;88.43;100021.55;209647;1294;139863;-66
2023/01/10 16:01:21;;;;;;;30.30;19.20;;;;;;;5.37;88.15;100022.09;208623;1293;139683;-66
2023/01/10 16:06:32;;;;;;;29.10;16.80;;;;;;;5.44;88.65;100018.77;209113;1286;140677;-66
2023/01/10 16:17:01;;;;;;;31.90;17.50;;;;;;;5.46;88.79;100024.17;207673;1292;140521;-66
2023/01/10 16:22:05;;;;;;;28.00;15.50;;;;;;;5.45;88.63;100033.05;208431;1285;141387;-66
2023/01/10 16:27:09;;;;;;;29.90;16.60;;;;;;;5.49;88.46;100034.90;208487;1292;140294;-66
2023/01/10 16:32:14;;;;;;;31.80;19.00;;;;;;;5.53;88.83;100040.88;209609;1291;141849;-66
2023/01/10 16:37:19;;;;;;;34.40;20.30;;;;;;;5.51;88.52;100041.41;208240;1286;141341;-65
2023/01/10 16:47:47;;;;;;;31.20;18.70;;;;;;;5.49;88.16;100051.75;208959;1292;140705;-66
2023/01/10 16:52:52;;;;;;;29.80;17.90;;;;;;;5.47;88.35;100045.02;208811;1292;141599;-66
2023/01/10 16:57:56;;;;;;;27.70;16.40;;;;;;;5.45;88.71;100048.62;208410;1292;139931;-66
2023/01/10 17:03:05;;;;;;;26.00;14.10;;;;;;;5.44;88.36;100048.41;208592;1285;139562;-66
2023/01/10 17:08:15;;;;;;;29.70;19.00;;;;;;;5.49;88.26;100054.79;208322;1292;140992;-67
2023/01/10 17:13:30;;;;;;;35.30;20.70;;;;;;;5.51;88.26;100058.25;208746;1285;140421;-65
2023/01/10 17:18:34;;;;;;;27.90;16.00;;;;;;;5.44;88.20;100070.78;208339;1292;140154;-67
2023/01/10 17:23:40;;;;;;;34.80;18.80;;;;;;;5.30;87.95;100077.41;210567;1285;139945;-67
2023/01/10 17:28:45;;;;;;;30.30;19.20;;;;;;;5.27;87.65;100083.78;209366;1294;140146;-66
2023/01/10 17:33:51;;;;;;;29.80;18.50;;;;;;;5.25;87.64;100099.66;210487;1295;140944;-65
2023/01/10 17:38:56;;;;;;;30.00;17.20;;;;;;;5.26;87.59;100108.13;208544;1291;141329;-66
2023/01/10 17:44:01;;;;;;;33.30;19.70;;;;;;;5.26;87.62;100105.27;210718;1294;143582;-66
2023/01/10 17:49:04;;;;;;;34.90;19.00;;;;;;;5.28;87.71;100112.38;208586;1288;141506;-65
2023/01/10 17:54:09;;;;;;;29.60;18.60;;;;;;;5.29;87.69;100115.76;207698;1294;246991;-65
2023/01/10 17:59:13;;;;;;;33.50;20.00;;;;;;;5.33;87.96;100120.06;208560;1285;141510;-65
2023/01/10 18:04:16;;;;;;;33.60;20.60;;;;;;;5.32;88.02;100123.31;209224;1279;140464;-66
2023/01/10 18:09:19;;;;;;;33.10;18.50;;;;;;;5.33;88.02;100125.27;208451;1292;140903;-67
2023/01/10 18:14:34;;;;;;;30.70;19.50;;;;;;;5.36;88.21;100125.99;208091;1285;142369;-66
2023/01/10 18:19:39;;;;;;;37.50;21.20;;;;;;;5.40;88.18;100134.86;207804;1284;142426;-66
2023/01/10 18:24:49;;;;;;;37.70;22.20;;;;;;;5.42;88.43;100142.02;209610;1284;139763;-66
2023/01/10 18:29:52;;;;;;;;;;;;;;;5.40;87.97;100147.91;207932;1292;140609;-66
2023/01/10 18:34:55;;;;;;;42.20;27.20;;;;;;;5.38;88.17;100152.49;208921;1288;126538;-66
2023/01/10 18:39:58;;;;;;;54.70;28.50;;;;;;;5.41;88.52;100151.62;208562;1284;235992;-65
2023/01/10 18:45:05;;;;;;;49.50;23.50;;;;;;;5.43;88.34;100151.20;208375;1292;141801;-65
2023/01/10 18:50:08;;;;;;;38.60;20.70;;;;;;;5.39;87.93;100154.16;208640;1291;140078;-66
2023/01/10 18:55:10;;;;;;;37.90;21.90;;;;;;;5.39;87.94;100164.37;208991;1292;140264;-66
2023/01/10 19:00:14;;;;;;;40.70;23.00;;;;;;;5.42;88.32;100173.02;209403;1282;140632;-66
2023/01/10 19:05:20;;;;;;;33.30;18.70;;;;;;;5.44;88.33;100173.73;208437;1292;141685;-66
2023/01/10 19:10:24;;;;;;;27.80;18.70;;;;;;;5.43;88.11;100180.84;208052;1285;142019;-66
2023/01/10 19:15:27;;;;;;;32.10;19.60;;;;;;;5.40;88.19;100183.29;208516;1292;143518;-65
2023/01/10 19:20:31;;;;;;;30.80;19.00;;;;;;;5.39;88.45;100176.98;208611;1292;236142;-67
2023/01/10 19:25:34;;;;;;;30.00;19.60;;;;;;;5.31;88.24;100184.06;209776;1294;141377;-66
2023/01/10 19:30:39;;;;;;;32.70;21.70;;;;;;;5.32;88.13;100182.23;208132;1286;140837;-66
2023/01/10 19:35:43;;;;;;;37.40;20.60;;;;;;;5.33;88.06;100186.89;210009;1292;140994;-66
2023/01/10 19:40:54;;;;;;;35.50;21.80;;;;;;;5.37;88.26;100190.42;210412;1294;142062;-68
2023/01/10 19:46:04;;;;;;;33.90;20.80;;;;;;;5.40;88.53;100185.54;210344;1287;140038;-67
2023/01/10 19:51:12;;;;;;;40.40;25.00;;;;;;;5.42;88.06;100186.61;210520;1295;230827;-68
2023/01/10 19:56:21;;;;;;;31.50;19.40;;;;;;;5.39;88.14;100185.39;209540;1292;141034;-67
2023/01/10 20:01:29;;;;;;;36.50;20.50;;;;;;;5.42;88.03;100182.37;208222;1292;141984;-67
2023/01/10 20:06:37;;;;;;;34.10;20.30;;;;;;;5.38;87.92;100183.89;207900;1284;141781;-65
2023/01/10 20:11:44;;;;;;;36.60;21.90;;;;;;;5.35;88.23;100188.58;208355;1284;140034;-66
2023/01/10 20:16:48;;;;;;;37.20;21.90;;;;;;;5.28;87.87;100196.67;208311;1292;140004;-66
2023/01/10 20:21:52;;;;;;;33.40;19.90;;;;;;;5.28;87.89;100203.22;208633;1291;140609;-66
2023/01/10 20:26:59;;;;;;;54.80;28.40;;;;;;;5.28;88.57;100201.39;208357;1292;140349;-65
2023/01/10 20:32:03;;;;;;;44.10;24.50;;;;;;;5.24;88.20;100199.36;207849;1284;139994;-66
2023/01/10 20:37:07;;;;;;;43.50;20.70;;;;;;;5.24;88.21;100195.86;208523;1291;383909;-67
2023/01/10 20:42:12;;;;;;;42.10;24.40;;;;;;;5.28;88.03;100199.48;208676;1285;140221;-66
2023/01/10 20:47:16;;;;;;;35.50;21.30;;;;;;;5.24;87.91;100199.80;207938;1292;141708;-65
2023/01/10 20:52:21;;;;;;;45.50;23.60;;;;;;;5.17;87.97;100195.94;209122;1292;139945;-67
2023/01/10 20:57:25;;;;;;;46.50;21.20;;;;;;;5.17;87.96;100198.20;208835;1284;140647;-66
2023/01/10 21:02:30;;;;;;;38.60;23.00;;;;;;;5.22;88.01;100198.84;209257;1291;141406;-66
2023/01/10 21:07:33;;;;;;;44.40;21.80;;;;;;;5.23;88.23;100197.20;210300;1292;140142;-67
2023/01/10 21:12:37;;;;;;;36.30;20.70;;;;;;;5.25;88.33;100197.53;209038;1293;140690;-67
2023/01/10 21:17:42;;;;;;;40.10;23.10;;;;;;;5.30;88.07;100198.85;208645;1293;139823;-69
2023/01/10 21:22:46;;;;;;;34.20;22.30;;;;;;;5.30;87.81;100196.70;210547;1298;235393;-69
2023/01/10 21:27:52;;;;;;;51.30;25.00;;;;;;;5.28;87.86;100205.50;210535;1293;140185;-68
2023/01/10 21:32:59;;;;;;;37.00;19.40;;;;;;;5.25;87.64;100206.45;208288;1286;139687;-70
2023/01/10 21:38:04;;;;;;;26.40;16.60;;;;;;;5.29;87.28;100204.25;208889;1291;140596;-67
2023/01/10 21:43:08;;;;;;;31.60;18.20;;;;;;;5.28;87.31;100209.33;210379;1287;139791;-69
2023/01/10 21:48:10;;;;;;;49.00;27.90;;;;;;;5.23;87.55;100213.77;208324;1292;140922;-68
2023/01/10 21:53:13;;;;;;;29.30;19.40;;;;;;;5.21;87.37;100213.03;207758;1284;140452;-69
2023/01/10 21:58:15;;;;;;;36.70;18.60;;;;;;;5.17;87.15;100218.39;208749;1285;141758;-67
2023/01/10 22:03:19;;;;;;;28.20;15.90;;;;;;;5.14;87.35;100221.67;207521;1278;141588;-65
2023/01/10 22:08:23;;;;;;;33.00;19.50;;;;;;;5.12;87.40;100218.73;208275;1286;141972;-62
2023/01/10 22:13:25;;;;;;;30.20;17.90;;;;;;;5.08;87.54;100217.27;208530;1286;140437;-67
2023/01/10 22:18:30;;;;;;;26.40;14.90;;;;;;;5.10;87.47;100209.27;208109;1285;235893;-65
2023/01/10 22:23:34;;;;;;;32.80;17.70;;;;;;;5.09;87.39;100213.13;208920;1286;139938;-68
2023/01/10 22:28:37;;;;;;;26.80;16.10;;;;;;;5.04;87.40;100217.59;208258;1287;139980;-65
2023/01/10 22:33:41;;;;;;;26.50;15.40;;;;;;;4.97;87.45;100210.96;207982;1285;141324;-65
2023/01/10 22:38:46;;;;;;;35.00;20.70;;;;;;;4.97;87.47;100223.35;208984;1293;142622;-66
2023/01/10 22:43:54;;;;;;;29.50;17.20;;;;;;;4.97;87.33;100229.69;207775;1285;141446;-67
2023/01/10 22:49:00;;;;;;;32.30;20.10;;;;;;;4.93;87.50;100226.52;209877;1294;139996;-65
2023/01/10 22:54:04;;;;;;;29.30;16.90;;;;;;;4.93;87.59;100226.51;207828;1286;141416;-66
2023/01/10 22:59:09;;;;;;;29.20;15.90;;;;;;;4.94;87.30;100229.29;208608;1300;140663;-66
2023/01/10 23:04:11;;;;;;;28.70;16.50;;;;;;;4.93;87.39;100226.63;207974;1296;141037;-66
2023/01/10 23:09:14;;;;;;;27.20;16.80;;;;;;;4.93;87.56;100226.46;209649;1291;140638;-67
2023/01/10 23:14:16;;;;;;;31.00;18.70;;;;;;;4.93;87.53;100231.55;209085;1287;141012;-68
2023/01/10 23:19:20;;;;;;;28.50;17.40;;;;;;;4.90;87.26;100229.81;209509;1286;141113;-67
2023/01/10 23:24:23;;;;;;;32.20;17.10;;;;;;;4.89;87.44;100232.73;209095;1293;140751;-68
2023/01/10 23:29:25;;;;;;;26.50;16.30;;;;;;;4.89;87.63;100237.40;210682;1298;141473;-67
2023/01/10 23:34:28;;;;;;;31.10;16.10;;;;;;;4.91;87.51;100237.99;209796;1295;153551;-67
2023/01/10 23:39:31;;;;;;;28.50;16.40;;;;;;;4.93;87.14;100234.64;210408;1293;141545;-68
2023/01/10 23:44:36;;;;;;;27.10;16.80;;;;;;;4.91;87.25;100235.18;209558;1291;141809;-65
2023/01/10 23:49:39;;;;;;;36.80;17.40;;;;;;;4.89;86.98;100229.31;210397;1282;139894;-67